createdAt,value
2023-03-22T00:00:19.398Z,13.01
2023-03-22T00:02:51.356Z,12.98
2023-03-22T00:05:23.031Z,12.51
2023-03-22T00:07:54.795Z,12.25
2023-03-22T00:10:28.126Z,12.57
2023-03-22T00:13:00.713Z,12.26
2023-03-22T00:15:32.705Z,12.07
2023-03-22T00:18:04.576Z,12.02
2023-03-22T00:20:36.144Z,12.27
2023-03-22T00:23:07.907Z,12.25
2023-03-22T00:25:39.512Z,11.98
2023-03-22T00:28:12.290Z,12.13
2023-03-22T00:30:52.271Z,12.29
2023-03-22T00:33:24.802Z,12.07
2023-03-22T00:36:02.368Z,12.19
2023-03-22T00:38:42.123Z,12.18
2023-03-22T00:41:20.458Z,12.16
2023-03-22T00:43:52.193Z,12.21
2023-03-22T00:46:23.865Z,12.19
2023-03-22T00:48:56.114Z,12.24
2023-03-22T00:51:27.781Z,12.11
2023-03-22T00:53:59.405Z,12.13
2023-03-22T00:56:31.115Z,11.92
2023-03-22T00:59:10.165Z,11.95
2023-03-22T01:01:43.062Z,12.00
2023-03-22T01:04:14.638Z,11.73
2023-03-22T01:06:46.258Z,11.70
2023-03-22T01:09:17.917Z,11.74
2023-03-22T01:11:50.805Z,11.68
2023-03-22T01:14:22.989Z,11.69
2023-03-22T01:16:55.201Z,11.61
2023-03-22T01:19:26.910Z,11.52
2023-03-22T01:21:58.644Z,11.39
2023-03-22T01:24:30.678Z,11.26
2023-03-22T01:27:02.338Z,11.23
2023-03-22T01:29:34.164Z,11.11
2023-03-22T01:32:06.151Z,11.16
2023-03-22T01:34:38.004Z,11.44
2023-03-22T01:37:10.628Z,11.49
2023-03-22T01:39:49.012Z,11.47
2023-03-22T01:42:23.544Z,11.45
2023-03-22T01:45:15.462Z,11.35
2023-03-22T01:47:59.270Z,11.18
2023-03-22T01:50:31.322Z,11.02
2023-03-22T01:53:03.856Z,11.01
2023-03-22T01:55:38.178Z,10.83
2023-03-22T01:58:16.721Z,10.96
2023-03-22T02:00:54.649Z,11.07
2023-03-22T02:04:09.926Z,11.10
2023-03-22T02:06:42.889Z,10.90
2023-03-22T02:09:20.861Z,10.87
2023-03-22T02:12:07.935Z,10.88
2023-03-22T02:15:19.482Z,11.00
2023-03-22T02:18:24.948Z,10.78
2023-03-22T02:21:34.605Z,10.88
2023-03-22T02:24:41.681Z,11.06
2023-03-22T02:27:14.819Z,10.93
2023-03-22T02:30:00.269Z,10.80
2023-03-22T02:32:32.056Z,10.50
2023-03-22T02:35:36.786Z,10.70
2023-03-22T02:38:20.760Z,10.66
2023-03-22T02:41:13.947Z,10.41
2023-03-22T02:43:54.863Z,10.47
2023-03-22T02:46:43.211Z,10.51
2023-03-22T02:49:54.761Z,10.56
2023-03-22T02:52:55.712Z,10.51
2023-03-22T02:55:35.561Z,10.49
2023-03-22T02:58:24.910Z,10.42
2023-03-22T03:01:06.872Z,10.53
2023-03-22T03:03:39.842Z,10.14
2023-03-22T03:06:17.548Z,10.26
2023-03-22T03:08:51.030Z,10.46
2023-03-22T03:11:22.925Z,10.49
2023-03-22T03:13:54.593Z,10.34
2023-03-22T03:16:30.717Z,10.27
2023-03-22T03:19:06.219Z,10.21
2023-03-22T03:21:46.224Z,10.19
2023-03-22T03:24:39.968Z,9.87
2023-03-22T03:27:37.365Z,10.09
2023-03-22T03:30:20.919Z,10.05
2023-03-22T03:33:06.649Z,10.15
2023-03-22T03:35:51.486Z,10.27
2023-03-22T03:38:29.078Z,9.69
2023-03-22T03:41:06.604Z,9.79
2023-03-22T03:43:41.141Z,9.44
2023-03-22T03:46:13.134Z,9.82
2023-03-22T03:48:49.506Z,10.10
2023-03-22T03:51:21.149Z,10.18
2023-03-22T03:53:53.034Z,10.14
2023-03-22T03:56:26.745Z,9.79
2023-03-22T03:58:59.573Z,9.79
2023-03-22T04:01:31.349Z,9.68
2023-03-22T04:04:20.555Z,9.78
2023-03-22T04:06:57.609Z,10.01
2023-03-22T04:09:33.996Z,10.20
2023-03-22T04:12:15.026Z,10.15
2023-03-22T04:14:50.484Z,9.76
2023-03-22T04:17:27.688Z,9.82
2023-03-22T04:19:59.422Z,10.03
2023-03-22T04:22:31.332Z,10.13
2023-03-22T04:25:03.563Z,10.07
2023-03-22T04:27:35.805Z,9.97
2023-03-22T04:30:15.215Z,9.87
2023-03-22T04:33:06.242Z,9.94
2023-03-22T04:35:54.195Z,9.64
2023-03-22T04:38:26.153Z,9.95
2023-03-22T04:40:59.532Z,9.90
2023-03-22T04:43:45.053Z,9.73
2023-03-22T04:46:18.779Z,9.25
2023-03-22T04:49:07.819Z,9.57
2023-03-22T04:51:43.890Z,9.82
2023-03-22T04:54:38.543Z,9.82
2023-03-22T04:57:11.387Z,9.13
2023-03-22T04:59:47.887Z,9.41
2023-03-22T05:02:19.653Z,9.38
2023-03-22T05:04:54.835Z,9.48
2023-03-22T05:07:45.746Z,9.45
2023-03-22T05:10:17.521Z,9.10
2023-03-22T05:12:49.372Z,8.70
2023-03-22T05:15:30.048Z,8.69
2023-03-22T05:18:03.874Z,8.79
2023-03-22T05:20:35.594Z,9.19
2023-03-22T05:23:20.451Z,8.72
2023-03-22T05:25:56.273Z,8.94
2023-03-22T05:28:29.169Z,9.03
2023-03-22T05:31:09.355Z,9.25
2023-03-22T05:33:49.583Z,8.97
2023-03-22T05:36:24.040Z,8.70
2023-03-22T05:39:18.412Z,9.12
2023-03-22T05:41:50.266Z,9.18
2023-03-22T05:44:22.080Z,9.33
2023-03-22T05:47:03.938Z,9.37
2023-03-22T05:49:39.564Z,9.47
2023-03-22T05:52:12.013Z,9.41
2023-03-22T05:55:07.222Z,9.51
2023-03-22T05:57:40.156Z,9.83
2023-03-22T06:00:15.463Z,11.24
2023-03-22T06:03:14.643Z,13.11
2023-03-22T06:05:51.638Z,13.91
2023-03-22T06:08:26.742Z,14.12
2023-03-22T06:10:58.855Z,15.42
2023-03-22T06:13:31.651Z,16.37
2023-03-22T06:16:04.872Z,16.89
2023-03-22T06:18:36.958Z,14.64
2023-03-22T06:21:13.789Z,13.46
2023-03-22T06:23:46.441Z,13.47
2023-03-22T06:26:18.359Z,13.01
2023-03-22T06:28:51.010Z,12.83
2023-03-22T06:31:23.641Z,14.51
2023-03-22T06:34:07.002Z,16.95
2023-03-22T06:36:43.548Z,18.81
2023-03-22T06:39:18.810Z,19.73
2023-03-22T06:41:51.541Z,19.00
2023-03-22T06:44:23.368Z,21.03
2023-03-22T06:46:55.096Z,22.48
2023-03-22T06:49:38.797Z,21.60
2023-03-22T06:52:10.439Z,22.07
2023-03-22T06:54:42.247Z,22.73
2023-03-22T06:57:14.927Z,22.78
2023-03-22T06:59:46.520Z,24.24
2023-03-22T07:02:18.131Z,23.78
2023-03-22T07:05:09.682Z,25.59
2023-03-22T07:07:41.399Z,26.26
2023-03-22T07:10:13.330Z,25.58
2023-03-22T07:12:44.945Z,25.50
2023-03-22T07:15:20.093Z,25.79
2023-03-22T07:18:04.033Z,25.75
2023-03-22T07:20:38.387Z,25.93
2023-03-22T07:23:10.382Z,25.50
2023-03-22T07:25:49.980Z,26.40
2023-03-22T07:28:27.921Z,26.69
2023-03-22T07:31:04.747Z,26.28
2023-03-22T07:33:46.810Z,24.84
2023-03-22T07:36:18.602Z,23.59
2023-03-22T07:38:51.504Z,22.90
2023-03-22T07:41:29.472Z,22.90
2023-03-22T07:44:21.913Z,21.51
2023-03-22T07:47:07.901Z,20.92
2023-03-22T07:49:54.024Z,21.22
2023-03-22T07:52:30.969Z,21.05
2023-03-22T07:55:04.802Z,20.24
2023-03-22T07:57:37.380Z,20.65
2023-03-22T08:00:10.132Z,21.33
2023-03-22T08:02:50.652Z,21.19
2023-03-22T08:05:43.366Z,20.43
2023-03-22T08:08:18.910Z,19.38
2023-03-22T08:10:52.109Z,19.84
2023-03-22T08:13:23.995Z,19.78
2023-03-22T08:15:56.173Z,19.56
2023-03-22T08:18:29.060Z,19.12
2023-03-22T08:21:01.095Z,19.64
2023-03-22T08:23:41.901Z,17.95
2023-03-22T08:26:37.362Z,17.61
2023-03-22T08:29:18.600Z,17.21
2023-03-22T08:31:52.441Z,16.64
2023-03-22T08:34:24.158Z,16.46
2023-03-22T08:36:56.909Z,16.37
2023-03-22T08:39:28.696Z,16.17
2023-03-22T08:42:18.932Z,16.33
2023-03-22T08:44:52.628Z,16.43
2023-03-22T08:47:26.562Z,16.35
2023-03-22T08:50:04.783Z,15.98
2023-03-22T08:52:45.456Z,16.97
2023-03-22T08:55:38.192Z,17.01
2023-03-22T08:58:16.754Z,17.98
2023-03-22T09:01:26.371Z,17.94
2023-03-22T09:04:04.675Z,18.04
2023-03-22T09:06:36.414Z,18.62
2023-03-22T09:09:08.073Z,18.43
2023-03-22T09:11:40.969Z,19.31
2023-03-22T09:14:12.667Z,17.82
2023-03-22T09:16:44.295Z,19.06
2023-03-22T09:19:15.997Z,18.85
2023-03-22T09:21:47.605Z,19.24
2023-03-22T09:24:24.292Z,18.92
2023-03-22T09:26:58.836Z,18.31
2023-03-22T09:32:23.883Z,18.02
2023-03-22T09:35:02.709Z,18.83
2023-03-22T09:37:43.555Z,19.00
2023-03-22T09:40:16.706Z,19.18
2023-03-22T09:42:54.508Z,18.61
2023-03-22T09:45:41.329Z,18.59
2023-03-22T09:48:31.275Z,18.85
2023-03-22T09:51:05.960Z,19.16
2023-03-22T09:53:37.604Z,17.65
2023-03-22T09:56:26.011Z,16.99
2023-03-22T09:59:08.674Z,17.21
2023-03-22T10:01:46.094Z,17.54
2023-03-22T10:04:47.320Z,17.28
2023-03-22T10:07:40.233Z,17.70
2023-03-22T10:10:20.011Z,17.69
2023-03-22T10:13:12.018Z,17.29
2023-03-22T10:15:47.985Z,18.49
2023-03-22T10:18:36.647Z,17.95
2023-03-22T10:21:11.487Z,16.96
2023-03-22T10:24:05.076Z,17.09
2023-03-22T10:26:40.491Z,17.19
2023-03-22T10:29:22.072Z,16.84
2023-03-22T10:31:54.636Z,16.53
2023-03-22T10:34:29.577Z,16.68
2023-03-22T10:37:06.060Z,16.35
2023-03-22T10:39:46.078Z,16.74
2023-03-22T10:42:28.089Z,16.72
2023-03-22T10:45:08.481Z,16.76
2023-03-22T10:47:52.830Z,17.74
2023-03-22T10:50:30.477Z,18.53
2023-03-22T10:53:26.930Z,17.33
2023-03-22T10:55:59.066Z,17.45
2023-03-22T10:58:33.387Z,17.03
2023-03-22T11:01:11.449Z,17.94
2023-03-22T11:03:44.552Z,17.69
2023-03-22T11:06:28.869Z,18.53
2023-03-22T11:09:10.414Z,17.51
2023-03-22T11:11:54.325Z,18.00
2023-03-22T11:14:42.679Z,18.19
2023-03-22T11:17:22.515Z,17.59
2023-03-22T11:19:54.087Z,17.74
2023-03-22T11:22:39.987Z,17.05
2023-03-22T11:25:22.573Z,17.50
2023-03-22T11:28:05.264Z,17.54
2023-03-22T11:30:37.249Z,18.09
2023-03-22T11:33:08.874Z,17.80
2023-03-22T11:35:45.827Z,18.89
2023-03-22T11:38:41.216Z,18.85
2023-03-22T11:41:32.044Z,18.18
2023-03-22T11:44:14.133Z,18.15
2023-03-22T11:46:56.030Z,18.28
2023-03-22T11:49:47.563Z,19.09
2023-03-22T11:52:24.945Z,18.67
2023-03-22T11:55:00.789Z,19.02
2023-03-22T11:57:36.143Z,18.64
2023-03-22T12:00:32.895Z,18.28
2023-03-22T12:03:19.896Z,18.55
2023-03-22T12:05:53.254Z,18.53
2023-03-22T12:08:49.655Z,18.85
2023-03-22T12:11:31.402Z,18.90
2023-03-22T12:14:25.890Z,17.82
2023-03-22T12:17:05.134Z,17.46
2023-03-22T12:19:50.287Z,17.89
2023-03-22T12:22:33.581Z,17.54
2023-03-22T12:25:12.557Z,17.97
2023-03-22T12:27:51.041Z,18.30
2023-03-22T12:30:31.731Z,18.88
2023-03-22T12:33:27.080Z,19.43
2023-03-22T12:36:04.129Z,18.41
2023-03-22T12:38:44.769Z,17.74
2023-03-22T12:41:24.975Z,18.07
2023-03-22T12:44:38.142Z,16.99
2023-03-22T12:47:12.914Z,17.44
2023-03-22T12:49:50.966Z,17.64
2023-03-22T12:52:37.618Z,17.52
2023-03-22T12:55:24.948Z,17.62
2023-03-22T12:57:57.538Z,17.13
2023-03-22T13:00:36.370Z,17.35
2023-03-22T13:03:17.004Z,17.48
2023-03-22T13:05:59.335Z,17.24
2023-03-22T13:09:10.207Z,17.53
2023-03-22T13:11:47.163Z,17.58
2023-03-22T13:14:49.898Z,18.19
2023-03-22T13:17:24.527Z,18.61
2023-03-22T13:20:21.085Z,18.76
2023-03-22T13:22:52.663Z,17.85
2023-03-22T13:25:33.637Z,17.69
2023-03-22T13:28:27.041Z,17.95
2023-03-22T13:30:59.080Z,18.18
2023-03-22T13:33:36.702Z,18.27
2023-03-22T13:36:24.287Z,18.55
2023-03-22T13:38:59.862Z,18.44
2023-03-22T13:41:34.624Z,18.55
2023-03-22T13:44:35.702Z,18.29
2023-03-22T13:47:33.761Z,18.51
2023-03-22T13:50:27.793Z,17.91
2023-03-22T13:53:07.702Z,18.00
2023-03-22T13:55:51.148Z,18.29
2023-03-22T13:58:50.572Z,18.61
2023-03-22T14:01:26.727Z,19.07
2023-03-22T14:04:02.080Z,19.53
2023-03-22T14:06:49.401Z,18.92
2023-03-22T14:09:29.771Z,19.22
2023-03-22T14:12:19.110Z,19.54
2023-03-22T14:14:56.913Z,19.34
2023-03-22T14:17:47.054Z,19.84
2023-03-22T14:20:22.659Z,19.67
